sensor_id;sensor_type;location;lat;lon;timestamp;pressure;altitude;pressure_sealevel;temperature;humidity
80938;BME280;70395;51.382;7.074;2023-06-26T00:02:23;100119.72;;;26.41;38.36
80938;BME280;70395;51.382;7.074;2023-06-26T00:04:49;100115.56;;;26.39;38.65
80938;BME280;70395;51.382;7.074;2023-06-26T00:07:20;100114.16;;;26.36;38.51
80938;BME280;70395;51.382;7.074;2023-06-26T00:09:46;100110.84;;;26.34;38.77
80938;BME280;70395;51.382;7.074;2023-06-26T00:12:12;100111.94;;;26.33;39.02
80938;BME280;70395;51.382;7.074;2023-06-26T00:14:37;100111.63;;;26.29;38.65
80938;BME280;70395;51.382;7.074;2023-06-26T00:17:03;100114.88;;;26.26;39.17
80938;BME280;70395;51.382;7.074;2023-06-26T00:19:29;100113.75;;;26.22;39.00
80938;BME280;70395;51.382;7.074;2023-06-26T00:21:55;100108.75;;;26.19;39.12
80938;BME280;70395;51.382;7.074;2023-06-26T00:24:21;100112.84;;;26.16;39.15
80938;BME280;70395;51.382;7.074;2023-06-26T00:26:47;100115.00;;;26.14;38.49
80938;BME280;70395;51.382;7.074;2023-06-26T00:29:13;100106.44;;;26.11;38.80
80938;BME280;70395;51.382;7.074;2023-06-26T00:31:39;100102.03;;;26.09;38.97
80938;BME280;70395;51.382;7.074;2023-06-26T00:34:06;100102.03;;;26.09;39.01
80938;BME280;70395;51.382;7.074;2023-06-26T00:36:32;100103.97;;;26.09;39.11
80938;BME280;70395;51.382;7.074;2023-06-26T00:38:59;100098.16;;;26.05;39.24
80938;BME280;70395;51.382;7.074;2023-06-26T00:41:24;100103.31;;;26.02;38.86
80938;BME280;70395;51.382;7.074;2023-06-26T00:43:50;100103.59;;;26.00;38.92
80938;BME280;70395;51.382;7.074;2023-06-26T00:46:17;100107.41;;;25.99;38.61
80938;BME280;70395;51.382;7.074;2023-06-26T00:48:46;100111.81;;;26.00;38.88
80938;BME280;70395;51.382;7.074;2023-06-26T00:51:12;100099.72;;;26.01;39.29
80938;BME280;70395;51.382;7.074;2023-06-26T00:53:39;100095.56;;;25.98;39.50
80938;BME280;70395;51.382;7.074;2023-06-26T00:56:05;100096.13;;;25.95;39.29
80938;BME280;70395;51.382;7.074;2023-06-26T00:58:32;100097.44;;;25.93;39.58
80938;BME280;70395;51.382;7.074;2023-06-26T01:00:58;100091.34;;;25.91;39.51
80938;BME280;70395;51.382;7.074;2023-06-26T01:03:25;100091.31;;;25.85;39.33
80938;BME280;70395;51.382;7.074;2023-06-26T01:05:57;100083.22;;;25.79;39.63
80938;BME280;70395;51.382;7.074;2023-06-26T01:08:25;100085.97;;;25.79;39.35
80938;BME280;70395;51.382;7.074;2023-06-26T01:10:52;100090.06;;;25.76;39.20
80938;BME280;70395;51.382;7.074;2023-06-26T01:13:18;100085.09;;;25.73;39.40
80938;BME280;70395;51.382;7.074;2023-06-26T01:15:46;100081.97;;;25.69;40.03
80938;BME280;70395;51.382;7.074;2023-06-26T01:18:12;100087.16;;;25.66;39.88
80938;BME280;70395;51.382;7.074;2023-06-26T01:20:42;100077.75;;;25.61;39.62
80938;BME280;70395;51.382;7.074;2023-06-26T01:26:17;100071.03;;;25.52;40.16
80938;BME280;70395;51.382;7.074;2023-06-26T01:28:42;100060.06;;;25.52;39.58
80938;BME280;70395;51.382;7.074;2023-06-26T01:31:10;100064.13;;;25.49;40.11
80938;BME280;70395;51.382;7.074;2023-06-26T01:33:38;100067.41;;;25.46;40.30
80938;BME280;70395;51.382;7.074;2023-06-26T01:36:04;100067.06;;;25.42;39.55
80938;BME280;70395;51.382;7.074;2023-06-26T01:38:30;100057.16;;;25.41;39.95
80938;BME280;70395;51.382;7.074;2023-06-26T01:40:56;100062.66;;;25.41;39.26
80938;BME280;70395;51.382;7.074;2023-06-26T01:46:29;100053.84;;;25.39;39.01
80938;BME280;70395;51.382;7.074;2023-06-26T01:49:18;100051.88;;;25.35;39.83
80938;BME280;70395;51.382;7.074;2023-06-26T01:51:57;100054.59;;;25.35;39.58
80938;BME280;70395;51.382;7.074;2023-06-26T01:54:25;100049.38;;;25.33;40.28
80938;BME280;70395;51.382;7.074;2023-06-26T01:56:57;100058.44;;;25.34;39.49
80938;BME280;70395;51.382;7.074;2023-06-26T01:59:25;100051.53;;;25.31;39.69
80938;BME280;70395;51.382;7.074;2023-06-26T02:01:54;100055.13;;;25.32;39.44
80938;BME280;70395;51.382;7.074;2023-06-26T02:04:20;100048.53;;;25.33;39.79
80938;BME280;70395;51.382;7.074;2023-06-26T02:06:46;100056.78;;;25.33;39.68
80938;BME280;70395;51.382;7.074;2023-06-26T02:09:11;100047.47;;;25.34;39.50
80938;BME280;70395;51.382;7.074;2023-06-26T02:11:37;100047.47;;;25.34;39.54
80938;BME280;70395;51.382;7.074;2023-06-26T02:14:03;100051.28;;;25.33;39.89
80938;BME280;70395;51.382;7.074;2023-06-26T02:16:29;100057.03;;;25.31;39.80
80938;BME280;70395;51.382;7.074;2023-06-26T02:18:55;100062.53;;;25.31;38.79
80938;BME280;70395;51.382;7.074;2023-06-26T02:21:23;100059.78;;;25.31;39.37
80938;BME280;70395;51.382;7.074;2023-06-26T02:23:48;100054.78;;;25.28;39.14
80938;BME280;70395;51.382;7.074;2023-06-26T02:26:14;100061.09;;;25.28;39.46
80938;BME280;70395;51.382;7.074;2023-06-26T02:28:40;100055.84;;;25.27;39.42
80938;BME280;70395;51.382;7.074;2023-06-26T02:31:06;100053.63;;;25.24;39.08
80938;BME280;70395;51.382;7.074;2023-06-26T02:33:31;100063.78;;;25.23;39.29
80938;BME280;70395;51.382;7.074;2023-06-26T02:35:57;100066.16;;;25.19;39.58
80938;BME280;70395;51.382;7.074;2023-06-26T02:38:23;100062.84;;;25.17;39.29
80938;BME280;70395;51.382;7.074;2023-06-26T02:40:49;100063.09;;;25.16;39.41
80938;BME280;70395;51.382;7.074;2023-06-26T02:43:15;100058.69;;;25.15;38.99
80938;BME280;70395;51.382;7.074;2023-06-26T02:45:41;100065.59;;;25.17;39.11
80938;BME280;70395;51.382;7.074;2023-06-26T02:48:07;100070.84;;;25.19;39.18
80938;BME280;70395;51.382;7.074;2023-06-26T02:50:33;100070.31;;;25.22;39.01
80938;BME280;70395;51.382;7.074;2023-06-26T02:52:58;100078.31;;;25.24;38.74
80938;BME280;70395;51.382;7.074;2023-06-26T02:55:25;100076.72;;;25.28;39.41
80938;BME280;70395;51.382;7.074;2023-06-26T02:57:51;100083.91;;;25.29;38.97
80938;BME280;70395;51.382;7.074;2023-06-26T03:00:17;100088.06;;;25.32;39.18
80938;BME280;70395;51.382;7.074;2023-06-26T03:02:43;100088.84;;;25.32;38.87
80938;BME280;70395;51.382;7.074;2023-06-26T03:05:08;100078.97;;;25.31;38.97
80938;BME280;70395;51.382;7.074;2023-06-26T03:07:34;100088.06;;;25.32;38.81
80938;BME280;70395;51.382;7.074;2023-06-26T03:10:00;100087.44;;;25.29;39.46
80938;BME280;70395;51.382;7.074;2023-06-26T03:12:26;100084.13;;;25.27;39.05
80938;BME280;70395;51.382;7.074;2023-06-26T03:14:51;100090.72;;;25.26;39.33
80938;BME280;70395;51.382;7.074;2023-06-26T03:17:17;100091.78;;;25.25;39.14
80938;BME280;70395;51.382;7.074;2023-06-26T03:19:43;100099.16;;;25.25;39.22
80938;BME280;70395;51.382;7.074;2023-06-26T03:22:09;100094.19;;;25.22;39.49
80938;BME280;70395;51.382;7.074;2023-06-26T03:24:34;100107.31;;;25.19;39.40
80938;BME280;70395;51.382;7.074;2023-06-26T03:27:00;100111.16;;;25.18;40.35
80938;BME280;70395;51.382;7.074;2023-06-26T03:29:26;100111.66;;;25.15;39.60
80938;BME280;70395;51.382;7.074;2023-06-26T03:31:51;100122.88;;;25.14;40.45
80938;BME280;70395;51.382;7.074;2023-06-26T03:34:17;100122.03;;;25.13;40.51
80938;BME280;70395;51.382;7.074;2023-06-26T03:36:43;100122.28;;;25.12;40.53
80938;BME280;70395;51.382;7.074;2023-06-26T03:39:09;100118.94;;;25.10;40.45
80938;BME280;70395;51.382;7.074;2023-06-26T03:41:34;100117.28;;;25.08;40.67
80938;BME280;70395;51.382;7.074;2023-06-26T03:44:00;100122.19;;;25.06;41.23
80938;BME280;70395;51.382;7.074;2023-06-26T03:46:27;100132.59;;;25.04;40.88
80938;BME280;70395;51.382;7.074;2023-06-26T03:48:53;100127.84;;;25.00;42.01
80938;BME280;70395;51.382;7.074;2023-06-26T03:51:19;100131.88;;;24.97;41.74
80938;BME280;70395;51.382;7.074;2023-06-26T03:53:45;100131.78;;;24.92;41.89
80938;BME280;70395;51.382;7.074;2023-06-26T03:56:11;100135.84;;;24.89;42.08
80938;BME280;70395;51.382;7.074;2023-06-26T03:58:36;100128.97;;;24.86;42.31
80938;BME280;70395;51.382;7.074;2023-06-26T04:01:02;100118.72;;;24.82;42.46
80938;BME280;70395;51.382;7.074;2023-06-26T04:03:28;100129.13;;;24.80;42.41
80938;BME280;70395;51.382;7.074;2023-06-26T04:05:54;100136.16;;;24.75;43.00
80938;BME280;70395;51.382;7.074;2023-06-26T04:08:20;100130.34;;;24.72;43.47
80938;BME280;70395;51.382;7.074;2023-06-26T04:10:46;100143.69;;;24.68;43.32
80938;BME280;70395;51.382;7.074;2023-06-26T04:13:14;100145.84;;;24.66;43.27
80938;BME280;70395;51.382;7.074;2023-06-26T04:15:40;100151.59;;;24.65;43.86
80938;BME280;70395;51.382;7.074;2023-06-26T04:18:05;100153.97;;;24.61;44.13
80938;BME280;70395;51.382;7.074;2023-06-26T04:20:31;100156.97;;;24.59;43.89
80938;BME280;70395;51.382;7.074;2023-06-26T04:22:57;100152.53;;;24.58;44.06
80938;BME280;70395;51.382;7.074;2023-06-26T04:25:22;100159.13;;;24.57;43.82
80938;BME280;70395;51.382;7.074;2023-06-26T04:27:48;100161.34;;;24.60;44.42
80938;BME280;70395;51.382;7.074;2023-06-26T04:30:14;100158.59;;;24.60;44.64
80938;BME280;70395;51.382;7.074;2023-06-26T04:32:40;100164.69;;;24.62;44.35
80938;BME280;70395;51.382;7.074;2023-06-26T04:35:06;100175.41;;;24.64;44.86
80938;BME280;70395;51.382;7.074;2023-06-26T04:37:32;100167.78;;;24.66;45.08
80938;BME280;70395;51.382;7.074;2023-06-26T04:39:58;100168.34;;;24.68;44.79
80938;BME280;70395;51.382;7.074;2023-06-26T04:42:24;100174.19;;;24.72;44.93
80938;BME280;70395;51.382;7.074;2023-06-26T04:44:49;100170.97;;;24.75;45.24
80938;BME280;70395;51.382;7.074;2023-06-26T04:47:15;100163.34;;;24.77;45.62
80938;BME280;70395;51.382;7.074;2023-06-26T04:49:42;100179.88;;;24.82;45.46
80938;BME280;70395;51.382;7.074;2023-06-26T04:52:12;100184.03;;;24.85;45.49
80938;BME280;70395;51.382;7.074;2023-06-26T04:54:39;100184.38;;;24.89;45.37
80938;BME280;70395;51.382;7.074;2023-06-26T04:57:05;100185.78;;;24.91;45.55
80938;BME280;70395;51.382;7.074;2023-06-26T04:59:31;100181.47;;;24.95;45.66
80938;BME280;70395;51.382;7.074;2023-06-26T05:01:57;100184.56;;;24.99;45.71
80938;BME280;70395;51.382;7.074;2023-06-26T05:04:23;100175.88;;;25.02;45.45
80938;BME280;70395;51.382;7.074;2023-06-26T05:06:48;100195.69;;;25.04;46.28
80938;BME280;70395;51.382;7.074;2023-06-26T05:09:14;100185.28;;;25.06;46.23
80938;BME280;70395;51.382;7.074;2023-06-26T05:11:40;100189.66;;;25.07;46.22
80938;BME280;70395;51.382;7.074;2023-06-26T05:14:06;100191.94;;;25.11;45.97
80938;BME280;70395;51.382;7.074;2023-06-26T05:16:35;100194.69;;;25.11;46.32
80938;BME280;70395;51.382;7.074;2023-06-26T05:19:01;100187.50;;;25.10;46.21
80938;BME280;70395;51.382;7.074;2023-06-26T05:21:28;100197.41;;;25.11;45.81
80938;BME280;70395;51.382;7.074;2023-06-26T05:23:57;100193.59;;;25.12;45.62
80938;BME280;70395;51.382;7.074;2023-06-26T05:26:25;100198.56;;;25.15;45.45
80938;BME280;70395;51.382;7.074;2023-06-26T05:28:52;100195.59;;;25.16;45.77
80938;BME280;70395;51.382;7.074;2023-06-26T05:31:18;100202.84;;;25.23;45.56
80938;BME280;70395;51.382;7.074;2023-06-26T05:33:45;100197.78;;;25.32;45.76
80938;BME280;70395;51.382;7.074;2023-06-26T05:36:13;100200.47;;;25.44;44.96
80938;BME280;70395;51.382;7.074;2023-06-26T05:38:39;100207.50;;;25.57;45.20
80938;BME280;70395;51.382;7.074;2023-06-26T05:41:06;100217.59;;;25.68;45.24
80938;BME280;70395;51.382;7.074;2023-06-26T05:43:31;100227.09;;;25.78;44.83
80938;BME280;70395;51.382;7.074;2023-06-26T05:45:57;100231.00;;;25.82;44.76
80938;BME280;70395;51.382;7.074;2023-06-26T05:48:23;100230.69;;;25.78;44.58
80938;BME280;70395;51.382;7.074;2023-06-26T05:50:49;100241.59;;;25.73;44.61
80938;BME280;70395;51.382;7.074;2023-06-26T05:53:16;100245.19;;;25.61;44.23
80938;BME280;70395;51.382;7.074;2023-06-26T05:55:42;100243.09;;;25.51;44.97
80938;BME280;70395;51.382;7.074;2023-06-26T05:58:10;100244.84;;;25.40;44.98
80938;BME280;70395;51.382;7.074;2023-06-26T06:00:39;100235.94;;;25.33;44.75
80938;BME280;70395;51.382;7.074;2023-06-26T06:03:05;100237.28;;;25.30;44.62
80938;BME280;70395;51.382;7.074;2023-06-26T06:05:31;100236.78;;;25.34;45.24
80938;BME280;70395;51.382;7.074;2023-06-26T06:07:57;100233.03;;;25.40;45.32
80938;BME280;70395;51.382;7.074;2023-06-26T06:10:23;100235.13;;;25.50;44.74
80938;BME280;70395;51.382;7.074;2023-06-26T06:12:49;100226.50;;;25.58;44.81
80938;BME280;70395;51.382;7.074;2023-06-26T06:15:14;100237.31;;;25.65;44.59
80938;BME280;70395;51.382;7.074;2023-06-26T06:17:40;100258.44;;;25.64;44.92
80938;BME280;70395;51.382;7.074;2023-06-26T06:20:06;100254.28;;;25.62;44.83
80938;BME280;70395;51.382;7.074;2023-06-26T06:22:32;100253.94;;;25.58;44.74
80938;BME280;70395;51.382;7.074;2023-06-26T06:24:58;100250.00;;;25.54;45.26
80938;BME280;70395;51.382;7.074;2023-06-26T06:27:24;100252.44;;;25.50;44.65
80938;BME280;70395;51.382;7.074;2023-06-26T06:29:50;100259.00;;;25.49;45.81
80938;BME280;70395;51.382;7.074;2023-06-26T06:32:15;100255.50;;;25.54;45.27
80938;BME280;70395;51.382;7.074;2023-06-26T06:34:41;100256.25;;;25.67;45.15
80938;BME280;70395;51.382;7.074;2023-06-26T06:37:07;100258.81;;;25.85;44.89
80938;BME280;70395;51.382;7.074;2023-06-26T06:39:33;100277.78;;;26.04;44.92
80938;BME280;70395;51.382;7.074;2023-06-26T06:41:58;100271.59;;;26.14;44.54
80938;BME280;70395;51.382;7.074;2023-06-26T06:44:24;100270.00;;;26.18;44.43
80938;BME280;70395;51.382;7.074;2023-06-26T06:46:50;100280.09;;;26.13;44.66
80938;BME280;70395;51.382;7.074;2023-06-26T06:49:16;100285.66;;;26.01;44.68
80938;BME280;70395;51.382;7.074;2023-06-26T06:51:41;100283.28;;;25.87;44.25
80938;BME280;70395;51.382;7.074;2023-06-26T06:54:07;100285.94;;;25.82;44.20
80938;BME280;70395;51.382;7.074;2023-06-26T06:56:33;100296.81;;;25.77;45.30
80938;BME280;70395;51.382;7.074;2023-06-26T06:58:59;100289.91;;;25.74;45.49
80938;BME280;70395;51.382;7.074;2023-06-26T07:01:24;100289.09;;;25.73;45.41
80938;BME280;70395;51.382;7.074;2023-06-26T07:03:50;100298.97;;;25.74;45.20
80938;BME280;70395;51.382;7.074;2023-06-26T07:06:16;100317.38;;;25.74;45.29
80938;BME280;70395;51.382;7.074;2023-06-26T07:08:42;100317.94;;;25.76;45.35
80938;BME280;70395;51.382;7.074;2023-06-26T07:11:07;100315.06;;;25.83;45.48
80938;BME280;70395;51.382;7.074;2023-06-26T07:13:33;100322.28;;;25.89;45.50
80938;BME280;70395;51.382;7.074;2023-06-26T07:15:59;100322.69;;;25.98;45.58
80938;BME280;70395;51.382;7.074;2023-06-26T07:18:25;100321.13;;;26.02;45.09
80938;BME280;70395;51.382;7.074;2023-06-26T07:20:50;100323.63;;;26.04;44.91
80938;BME280;70395;51.382;7.074;2023-06-26T07:23:16;100319.22;;;26.03;44.78
80938;BME280;70395;51.382;7.074;2023-06-26T07:25:42;100318.63;;;26.01;44.88
80938;BME280;70395;51.382;7.074;2023-06-26T07:28:13;100312.56;;;25.98;44.86
80938;BME280;70395;51.382;7.074;2023-06-26T07:30:40;100319.22;;;26.03;45.15
80938;BME280;70395;51.382;7.074;2023-06-26T07:33:05;100326.47;;;26.09;45.18
80938;BME280;70395;51.382;7.074;2023-06-26T07:35:31;100327.13;;;26.16;45.28
80938;BME280;70395;51.382;7.074;2023-06-26T07:37:57;100325.28;;;26.22;45.00
80938;BME280;70395;51.382;7.074;2023-06-26T07:40:23;100312.44;;;26.28;44.52
80938;BME280;70395;51.382;7.074;2023-06-26T07:42:49;100314.38;;;26.27;44.97
80938;BME280;70395;51.382;7.074;2023-06-26T07:45:15;100312.44;;;26.28;45.77
80938;BME280;70395;51.382;7.074;2023-06-26T07:47:41;100316.38;;;26.32;45.36
80938;BME280;70395;51.382;7.074;2023-06-26T07:50:07;100322.44;;;26.34;45.52
80938;BME280;70395;51.382;7.074;2023-06-26T07:52:34;100311.88;;;26.43;45.45
80938;BME280;70395;51.382;7.074;2023-06-26T07:55:00;100321.97;;;26.54;44.84
80938;BME280;70395;51.382;7.074;2023-06-26T07:57:26;100326.72;;;26.64;44.72
80938;BME280;70395;51.382;7.074;2023-06-26T07:59:51;100331.31;;;26.76;44.41
80938;BME280;70395;51.382;7.074;2023-06-26T08:02:17;100340.34;;;26.94;45.02
80938;BME280;70395;51.382;7.074;2023-06-26T08:04:43;100338.25;;;27.06;44.66
80938;BME280;70395;51.382;7.074;2023-06-26T08:07:09;100334.03;;;27.16;44.17
80938;BME280;70395;51.382;7.074;2023-06-26T08:09:36;100344.63;;;27.29;44.58
80938;BME280;70395;51.382;7.074;2023-06-26T08:12:02;100363.53;;;27.48;43.59
80938;BME280;70395;51.382;7.074;2023-06-26T08:14:28;100357.06;;;27.60;43.58
80938;BME280;70395;51.382;7.074;2023-06-26T08:16:54;100357.16;;;27.70;43.18
80938;BME280;70395;51.382;7.074;2023-06-26T08:19:20;100357.56;;;27.79;43.47
80938;BME280;70395;51.382;7.074;2023-06-26T08:21:47;100358.41;;;27.85;43.07
80938;BME280;70395;51.382;7.074;2023-06-26T08:24:13;100350.41;;;27.83;42.94
80938;BME280;70395;51.382;7.074;2023-06-26T08:26:42;100363.47;;;27.93;43.18
80938;BME280;70395;51.382;7.074;2023-06-26T08:29:07;100361.63;;;28.04;43.00
80938;BME280;70395;51.382;7.074;2023-06-26T08:31:34;100356.41;;;28.08;43.13
80938;BME280;70395;51.382;7.074;2023-06-26T08:34:03;100375.41;;;28.04;42.12
80938;BME280;70395;51.382;7.074;2023-06-26T08:36:29;100372.84;;;27.97;42.84
80938;BME280;70395;51.382;7.074;2023-06-26T08:38:55;100378.34;;;27.92;42.48
80938;BME280;70395;51.382;7.074;2023-06-26T08:41:21;100376.09;;;27.89;42.71
80938;BME280;70395;51.382;7.074;2023-06-26T08:43:47;100377.75;;;27.90;43.61
80938;BME280;70395;51.382;7.074;2023-06-26T08:46:15;100382.44;;;27.90;42.39
80938;BME280;70395;51.382;7.074;2023-06-26T08:48:49;100385.97;;;27.85;42.44
80938;BME280;70395;51.382;7.074;2023-06-26T08:51:24;100387.69;;;27.91;42.53
80938;BME280;70395;51.382;7.074;2023-06-26T08:54:02;100384.59;;;27.87;42.36
80938;BME280;70395;51.382;7.074;2023-06-26T08:56:42;100393.66;;;27.83;42.34
80938;BME280;70395;51.382;7.074;2023-06-26T08:59:10;100392.63;;;27.89;42.49
80938;BME280;70395;51.382;7.074;2023-06-26T09:01:37;100389.97;;;27.99;42.70
80938;BME280;70395;51.382;7.074;2023-06-26T09:04:04;100400.59;;;28.18;42.50
80938;BME280;70395;51.382;7.074;2023-06-26T09:06:30;100395.47;;;28.32;41.10
80938;BME280;70395;51.382;7.074;2023-06-26T09:08:56;100404.28;;;28.34;41.02
80938;BME280;70395;51.382;7.074;2023-06-26T09:11:22;100401.81;;;28.33;41.39
80938;BME280;70395;51.382;7.074;2023-06-26T09:13:47;100397.09;;;28.28;40.59
80938;BME280;70395;51.382;7.074;2023-06-26T09:16:13;100407.28;;;28.28;41.14
80938;BME280;70395;51.382;7.074;2023-06-26T09:18:41;100412.84;;;28.33;41.37
80938;BME280;70395;51.382;7.074;2023-06-26T09:21:11;100400.03;;;28.49;41.24
80938;BME280;70395;51.382;7.074;2023-06-26T09:23:39;100401.50;;;28.62;40.44
80938;BME280;70395;51.382;7.074;2023-06-26T09:26:06;100385.06;;;28.78;40.38
80938;BME280;70395;51.382;7.074;2023-06-26T09:28:33;100398.91;;;28.94;40.16
80938;BME280;70395;51.382;7.074;2023-06-26T09:31:05;100395.13;;;29.05;40.18
80938;BME280;70395;51.382;7.074;2023-06-26T09:33:38;100404.94;;;29.39;39.97
80938;BME280;70395;51.382;7.074;2023-06-26T09:36:09;100408.09;;;29.79;38.77
80938;BME280;70395;51.382;7.074;2023-06-26T09:38:43;100414.50;;;30.43;37.89
80938;BME280;70395;51.382;7.074;2023-06-26T09:41:09;100396.94;;;31.05;36.57
80938;BME280;70395;51.382;7.074;2023-06-26T09:43:48;100407.16;;;31.71;35.15
80938;BME280;70395;51.382;7.074;2023-06-26T09:48:49;100420.63;;;32.29;34.16
80938;BME280;70395;51.382;7.074;2023-06-26T09:51:22;100423.41;;;32.29;33.19
80938;BME280;70395;51.382;7.074;2023-06-26T09:53:48;100421.44;;;31.89;33.68
80938;BME280;70395;51.382;7.074;2023-06-26T09:56:17;100412.63;;;31.81;33.45
80938;BME280;70395;51.382;7.074;2023-06-26T09:58:44;100416.53;;;32.51;33.11
80938;BME280;70395;51.382;7.074;2023-06-26T10:01:10;100417.00;;;33.12;31.44
80938;BME280;70395;51.382;7.074;2023-06-26T10:03:36;100415.72;;;33.68;31.06
80938;BME280;70395;51.382;7.074;2023-06-26T10:06:04;100432.22;;;34.17;30.40
80938;BME280;70395;51.382;7.074;2023-06-26T10:08:31;100427.63;;;34.60;28.95
80938;BME280;70395;51.382;7.074;2023-06-26T10:11:00;100425.19;;;34.87;28.36
80938;BME280;70395;51.382;7.074;2023-06-26T10:13:37;100429.56;;;34.59;28.64
80938;BME280;70395;51.382;7.074;2023-06-26T10:16:06;100430.41;;;34.74;29.17
80938;BME280;70395;51.382;7.074;2023-06-26T10:18:33;100429.03;;;35.05;27.44
80938;BME280;70395;51.382;7.074;2023-06-26T10:21:03;100423.59;;;35.51;27.51
80938;BME280;70395;51.382;7.074;2023-06-26T10:23:31;100426.13;;;35.99;26.64
80938;BME280;70395;51.382;7.074;2023-06-26T10:26:00;100417.44;;;36.46;26.36
80938;BME280;70395;51.382;7.074;2023-06-26T10:28:29;100433.91;;;36.89;25.22
80938;BME280;70395;51.382;7.074;2023-06-26T10:30:57;100427.53;;;36.65;26.19
80938;BME280;70395;51.382;7.074;2023-06-26T10:33:24;100420.56;;;35.99;25.93
80938;BME280;70395;51.382;7.074;2023-06-26T10:35:50;100423.09;;;35.21;26.76
80938;BME280;70395;51.382;7.074;2023-06-26T10:38:17;100427.13;;;34.72;26.42
80938;BME280;70395;51.382;7.074;2023-06-26T10:40:46;100435.72;;;35.04;27.23
80938;BME280;70395;51.382;7.074;2023-06-26T10:43:15;100434.97;;;35.41;25.53
80938;BME280;70395;51.382;7.074;2023-06-26T10:45:49;100436.66;;;35.65;25.59
80938;BME280;70395;51.382;7.074;2023-06-26T10:48:20;100445.69;;;35.84;25.14
80938;BME280;70395;51.382;7.074;2023-06-26T10:50:50;100437.34;;;36.31;25.05
80938;BME280;70395;51.382;7.074;2023-06-26T11:01:21;100433.53;;;36.81;24.55
80938;BME280;70395;51.382;7.074;2023-06-26T11:04:07;100442.19;;;36.39;25.41
80938;BME280;70395;51.382;7.074;2023-06-26T11:06:35;100441.78;;;36.55;24.95
80938;BME280;70395;51.382;7.074;2023-06-26T11:09:07;100443.59;;;36.91;24.26
80938;BME280;70395;51.382;7.074;2023-06-26T11:14:19;100442.44;;;37.69;22.34
80938;BME280;70395;51.382;7.074;2023-06-26T11:16:45;100439.66;;;37.78;22.09
80938;BME280;70395;51.382;7.074;2023-06-26T11:19:14;100439.84;;;37.90;22.28
80938;BME280;70395;51.382;7.074;2023-06-26T11:21:40;100455.34;;;37.29;22.63
80938;BME280;70395;51.382;7.074;2023-06-26T11:24:07;100471.41;;;36.18;23.52
80938;BME280;70395;51.382;7.074;2023-06-26T11:26:42;100473.34;;;35.01;24.88
80938;BME280;70395;51.382;7.074;2023-06-26T11:29:09;100479.81;;;34.15;25.60
80938;BME280;70395;51.382;7.074;2023-06-26T11:31:38;100489.28;;;33.32;26.28
80938;BME280;70395;51.382;7.074;2023-06-26T11:34:10;100467.38;;;32.76;26.44
80938;BME280;70395;51.382;7.074;2023-06-26T11:36:39;100470.81;;;33.17;26.80
80938;BME280;70395;51.382;7.074;2023-06-26T11:39:07;100491.69;;;34.02;25.57
80938;BME280;70395;51.382;7.074;2023-06-26T11:41:37;100488.41;;;35.00;24.58
80938;BME280;70395;51.382;7.074;2023-06-26T11:44:09;100477.81;;;35.82;23.58
80938;BME280;70395;51.382;7.074;2023-06-26T11:46:37;100485.72;;;36.40;22.60
80938;BME280;70395;51.382;7.074;2023-06-26T11:49:05;100481.50;;;36.83;22.38
80938;BME280;70395;51.382;7.074;2023-06-26T11:51:31;100476.38;;;37.09;21.41
80938;BME280;70395;51.382;7.074;2023-06-26T11:53:56;100486.31;;;36.60;21.78
80938;BME280;70395;51.382;7.074;2023-06-26T11:56:22;100485.47;;;36.36;21.82
80938;BME280;70395;51.382;7.074;2023-06-26T11:59:07;100484.16;;;36.11;21.37
80938;BME280;70395;51.382;7.074;2023-06-26T12:01:38;100483.81;;;35.89;21.99
80938;BME280;70395;51.382;7.074;2023-06-26T12:04:07;100500.03;;;35.87;21.64
80938;BME280;70395;51.382;7.074;2023-06-26T12:06:42;100492.50;;;35.88;21.86
80938;BME280;70395;51.382;7.074;2023-06-26T12:09:10;100501.53;;;36.08;21.12
80938;BME280;70395;51.382;7.074;2023-06-26T12:11:52;100492.94;;;36.04;21.78
80938;BME280;70395;51.382;7.074;2023-06-26T12:14:21;100496.56;;;35.53;21.82
80938;BME280;70395;51.382;7.074;2023-06-26T12:16:47;100492.34;;;34.85;21.54
80938;BME280;70395;51.382;7.074;2023-06-26T12:19:14;100497.94;;;34.32;22.55
80938;BME280;70395;51.382;7.074;2023-06-26T12:24:12;100504.81;;;33.57;22.93
80938;BME280;70395;51.382;7.074;2023-06-26T12:26:41;100509.75;;;33.11;23.79
80938;BME280;70395;51.382;7.074;2023-06-26T12:29:15;100512.06;;;33.04;23.25
80938;BME280;70395;51.382;7.074;2023-06-26T12:31:46;100513.97;;;33.33;23.84
80938;BME280;70395;51.382;7.074;2023-06-26T12:34:15;100523.19;;;33.53;23.14
80938;BME280;70395;51.382;7.074;2023-06-26T12:36:47;100523.13;;;33.58;23.26
80938;BME280;70395;51.382;7.074;2023-06-26T12:39:20;100530.88;;;33.62;23.52
80938;BME280;70395;51.382;7.074;2023-06-26T12:41:53;100544.66;;;33.72;23.10
80938;BME280;70395;51.382;7.074;2023-06-26T12:44:26;100545.59;;;34.25;22.72
80938;BME280;70395;51.382;7.074;2023-06-26T12:46:59;100555.75;;;34.35;22.21
80938;BME280;70395;51.382;7.074;2023-06-26T12:49:38;100552.06;;;34.40;21.64
80938;BME280;70395;51.382;7.074;2023-06-26T12:52:12;100553.41;;;34.04;21.33
80938;BME280;70395;51.382;7.074;2023-06-26T12:54:41;100539.69;;;33.44;21.86
80938;BME280;70395;51.382;7.074;2023-06-26T12:57:08;100539.72;;;33.14;21.58
80938;BME280;70395;51.382;7.074;2023-06-26T12:59:36;100544.50;;;33.82;21.54
80938;BME280;70395;51.382;7.074;2023-06-26T13:02:03;100531.97;;;34.77;20.72
80938;BME280;70395;51.382;7.074;2023-06-26T13:04:30;100545.41;;;35.36;20.01
80938;BME280;70395;51.382;7.074;2023-06-26T13:06:56;100545.09;;;35.66;20.61
80938;BME280;70395;51.382;7.074;2023-06-26T13:09:23;100526.34;;;35.95;19.26
80938;BME280;70395;51.382;7.074;2023-06-26T13:11:53;100533.09;;;36.17;19.19
80938;BME280;70395;51.382;7.074;2023-06-26T13:14:20;100534.31;;;36.71;19.34